21 Jan 2020 19:27 UTC 2020021+19:27 UTC

Overview Datums Bench Marks Data Query Site Visit Daily QC Messages Attributes

042: Nueces Delta 2

27° 53' 19" N   97° 34' 10" W
NUDE2
The Coastal Bend Bays & Estuaries Program Coastal Bend Bays and Estuaries Program

Station Information

Nueces Delta 2
Nueces Delta 2
more pictures
 
Station Name:Nueces Delta 2
DNR ID:042
Location:27° 53' 19" N, 97° 34' 10" W

Water Level Forecasts

Latest Observations

Series Metric English Marine Observed at
Water Temperature 16.3 °C 61.3 °F 61.3 °F Jan 21 13:18 CST
00h08m ago
Salinity 28.700 psu 28.700 psu 28.700 psu Jan 21 13:18 CST
00h08m ago

Maps

Nueces Delta 2
All Stations in Area
Entire Network
 

Recent Observations

Date/Time Water
Temp (°F)
Sal (psu)
Jan 21 13:00 CST 60.6 28.600
Jan 21 12:00 CST 58.1 28.600
Jan 21 11:00 CST 55.9 28.800
Jan 21 10:00 CST 54.1 28.800
Jan 21 09:00 CST 53.8 28.800
Jan 21 08:00 CST 53.4 28.800
Jan 21 07:00 CST 53.2 28.800
Jan 21 06:00 CST 53.8 28.800
Jan 21 05:00 CST 54.5 28.800
Jan 21 04:00 CST 55.0 28.800
Jan 21 03:00 CST 55.6 28.800
Jan 21 02:00 CST 56.1 28.800
Jan 21 01:00 CST 56.7 28.800
Jan 21 00:00 CST 56.8 28.700
Jan 20 23:00 CST 57.4 28.700
Jan 20 22:00 CST 57.7 28.700
Jan 20 21:00 CST 58.3 28.700
Jan 20 20:00 CST 59.4 28.700
Jan 20 19:00 CST 60.3 28.600
Jan 20 18:00 CST 61.2 28.500
Jan 20 17:00 CST 62.1 28.400
Jan 20 16:00 CST 61.9 28.500
Jan 20 15:00 CST 61.0 28.400
Jan 20 14:00 CST 59.4 28.600
Jan 20 13:00 CST 56.1 28.600

Historical Data Availability